Red Jacket — 3ERX4 — position and weather

sailwx.info

Track history (hours):
 
Tides and Currents Weather Stations Pressure Air Temp Water Temp Dewpoint Dewpoint Depression Visibility Wind Speed Wind Dir Waves Ship Positions

Red Jacket

Last reported at 2018-Apr-14 15:37 UTC. Time now 2018-Apr-23 13:46 UTC.
Position N 38°14' E 121°45'.
Warning: this ship's position is 8 days out of date.

Length 189 m; draft 12.2 m.

Type: Cargo ship. MMSI: 370191000.

Date/timePositionNaut miles runAvg speedWind from/ knotsBaromVisibWave heightAir tempDewpointWater temp
2018-Apr-14 15:37N 38°14' E 121°45'211.8
2018-Apr-14 15:29N 38°14' E 121°47'611.8
2018-Apr-14 15:00N 38°11' E 121°53'611.8
2018-Apr-14 14:30N 38°08' E 121°59'1011.5
2018-Apr-14 13:38N 38°03' E 122°10'311.3
2018-Apr-14 13:21N 38°01' E 122°14'1811.2
2018-Apr-14 11:47N 37°52' E 122°33'311.5
2018-Apr-14 11:30N 37°51' E 122°37'1311.8
2018-Apr-14 10:25N 37°44' E 122°50'612.0
2018-Apr-14 09:55N 37°41' E 122°57'41111.1
2018-Apr-12 21:02N 30°55' E 124°13'0 8.3
2018-Apr-12 20:59N 30°54' E 124°13'3 7.0
2018-Apr-12 20:30N 30°51' E 124°14'  
Track history (hours):
 
Tides and Currents Weather Stations Pressure Air Temp Water Temp Dewpoint Dewpoint Depression Visibility Wind Speed Wind Dir Waves Ship Positions

Red Jacket

Last reported at 2018-Apr-14 15:37 UTC. Time now 2018-Apr-23 13:46 UTC.
Position N 38°14' E 121°45'.
Warning: this ship's position is 8 days out of date.

Length 189 m; draft 12.2 m.

Type: Cargo ship. MMSI: 370191000.

Date/timePositionNaut miles runAvg speedWind from/ knotsBaromVisibWave heightAir tempDewpointWater temp
2018-Apr-14 15:37N 38°14' E 121°45'211.8
2018-Apr-14 15:29N 38°14' E 121°47'611.8
2018-Apr-14 15:00N 38°11' E 121°53'611.8
2018-Apr-14 14:30N 38°08' E 121°59'1011.5
2018-Apr-14 13:38N 38°03' E 122°10'311.3
2018-Apr-14 13:21N 38°01' E 122°14'1811.2
2018-Apr-14 11:47N 37°52' E 122°33'311.5
2018-Apr-14 11:30N 37°51' E 122°37'1311.8
2018-Apr-14 10:25N 37°44' E 122°50'612.0
2018-Apr-14 09:55N 37°41' E 122°57'41111.1
2018-Apr-12 21:02N 30°55' E 124°13'0 8.3
2018-Apr-12 20:59N 30°54' E 124°13'3 7.0
2018-Apr-12 20:30N 30°51' E 124°14'  

Dump ship's entire track history